GLD352 SIRI-SJIR
Flight info
| Callsign | GLD352 |
|---|---|
| Flight time | 0h 44m |
| Altitude | 4500 |
| Route | DCT N0120A045 1352S03920W DCT 1349S03945W 1346S04006W DCT 1337S04027W DCT |
| Aircraft | C182/M-SDFGIRY/S |
Departure
| Time | 2026-05-07 21:56 |
|---|---|
| Airport | Barra Grande Airport (SIRI) |
Arrival
| Time | 2026-05-07 22:40 |
|---|---|
| Airport | Engenheiro Joaquim Martins Airport (SJIR) |
| Time | Latitude | Longitude | Altitude | Speed | Heading |
|---|---|---|---|---|---|
| 2026-05-07 21:48 | -13.90626 | -38.93385 | 21 ft | 0 kts | 184° |
| 2026-05-07 21:51 | -13.90623 | -38.93390 | 21 ft | 4 kts | 358° |
| 2026-05-07 21:52 | -13.90597 | -38.93374 | 26 ft | 6 kts | 328° |
| 2026-05-07 21:52 | -13.90573 | -38.93419 | 25 ft | 11 kts | 266° |
| 2026-05-07 21:52 | -13.90580 | -38.93517 | 24 ft | 17 kts | 267° |
| 2026-05-07 21:52 | -13.90585 | -38.93656 | 22 ft | 21 kts | 265° |
| 2026-05-07 21:53 | -13.90588 | -38.93718 | 22 ft | 0 kts | 274° |
| 2026-05-07 21:53 | -13.90588 | -38.93725 | 22 ft | 5 kts | 264° |
| 2026-05-07 21:53 | -13.90596 | -38.93789 | 23 ft | 14 kts | 262° |
| 2026-05-07 21:53 | -13.90612 | -38.93918 | 21 ft | 21 kts | 265° |
| 2026-05-07 21:54 | -13.90620 | -38.94080 | 20 ft | 24 kts | 265° |
| 2026-05-07 21:54 | -13.90627 | -38.94237 | 24 ft | 21 kts | 268° |
| 2026-05-07 21:54 | -13.90635 | -38.94382 | 26 ft | 20 kts | 265° |
| 2026-05-07 21:54 | -13.90637 | -38.94492 | 26 ft | 6 kts | 329° |
| 2026-05-07 21:55 | -13.90624 | -38.94434 | 26 ft | 16 kts | 89° |
| 2026-05-07 21:55 | -13.90604 | -38.94128 | 21 ft | 69 kts | 86° |
| 2026-05-07 21:55 | -13.90578 | -38.93546 | 170 ft | 89 kts | 93° |
| 2026-05-07 21:55 | -13.90587 | -38.92819 | 289 ft | 114 kts | 85° |
| 2026-05-07 21:56 | -13.90217 | -38.92082 | 605 ft | 120 kts | 49° |
| 2026-05-07 21:56 | -13.89411 | -38.91782 | 765 ft | 137 kts | 355° |
| 2026-05-07 21:56 | -13.88593 | -38.92323 | 850 ft | 154 kts | 303° |
| 2026-05-07 21:56 | -13.88306 | -38.93427 | 702 ft | 167 kts | 273° |
| 2026-05-07 21:57 | -13.88186 | -38.94630 | 680 ft | 169 kts | 273° |
| 2026-05-07 21:57 | -13.88045 | -38.95836 | 735 ft | 170 kts | 274° |
| 2026-05-07 21:57 | -13.87900 | -38.97008 | 866 ft | 161 kts | 274° |
| 2026-05-07 21:57 | -13.87775 | -38.98150 | 948 ft | 158 kts | 272° |
| 2026-05-07 21:58 | -13.87859 | -38.99256 | 1033 ft | 153 kts | 258° |
| 2026-05-07 21:58 | -13.88011 | -39.00326 | 1138 ft | 150 kts | 257° |
| 2026-05-07 21:58 | -13.88139 | -39.01392 | 1257 ft | 150 kts | 258° |
| 2026-05-07 21:58 | -13.88291 | -39.02464 | 1380 ft | 152 kts | 257° |
| 2026-05-07 21:59 | -13.88433 | -39.03547 | 1509 ft | 154 kts | 258° |
| 2026-05-07 21:59 | -13.88584 | -39.04645 | 1634 ft | 155 kts | 257° |
| 2026-05-07 21:59 | -13.88629 | -39.05748 | 1751 ft | 154 kts | 268° |
| 2026-05-07 21:59 | -13.88639 | -39.06852 | 1868 ft | 154 kts | 266° |
| 2026-05-07 22:00 | -13.88655 | -39.07957 | 1992 ft | 155 kts | 266° |
| 2026-05-07 22:00 | -13.88654 | -39.09069 | 2111 ft | 156 kts | 268° |
| 2026-05-07 22:00 | -13.88669 | -39.10199 | 2233 ft | 158 kts | 266° |
| 2026-05-07 22:00 | -13.88682 | -39.11317 | 2347 ft | 155 kts | 266° |
| 2026-05-07 22:01 | -13.88695 | -39.12426 | 2476 ft | 155 kts | 267° |
| 2026-05-07 22:01 | -13.88716 | -39.13551 | 2600 ft | 158 kts | 267° |
| 2026-05-07 22:01 | -13.88735 | -39.14684 | 2723 ft | 159 kts | 267° |
| 2026-05-07 22:01 | -13.88755 | -39.15830 | 2847 ft | 161 kts | 266° |
| 2026-05-07 22:02 | -13.88778 | -39.16977 | 2969 ft | 160 kts | 266° |
| 2026-05-07 22:02 | -13.88806 | -39.18132 | 3090 ft | 162 kts | 266° |
| 2026-05-07 22:02 | -13.88832 | -39.19290 | 3211 ft | 162 kts | 266° |
| 2026-05-07 22:02 | -13.88855 | -39.20445 | 3337 ft | 161 kts | 267° |
| 2026-05-07 22:03 | -13.88877 | -39.21605 | 3453 ft | 163 kts | 267° |
| 2026-05-07 22:03 | -13.88906 | -39.22784 | 3575 ft | 166 kts | 266° |
| 2026-05-07 22:03 | -13.88934 | -39.23973 | 3674 ft | 166 kts | 266° |
| 2026-05-07 22:03 | -13.88960 | -39.25151 | 3786 ft | 163 kts | 266° |
| 2026-05-07 22:04 | -13.88977 | -39.26329 | 3911 ft | 166 kts | 271° |
| 2026-05-07 22:04 | -13.88793 | -39.27510 | 4031 ft | 167 kts | 280° |
| 2026-05-07 22:04 | -13.88577 | -39.28689 | 4146 ft | 168 kts | 280° |
| 2026-05-07 22:04 | -13.88370 | -39.29869 | 4259 ft | 167 kts | 279° |
| 2026-05-07 22:05 | -13.88164 | -39.31039 | 4395 ft | 166 kts | 279° |
| 2026-05-07 22:05 | -13.87956 | -39.32205 | 4513 ft | 166 kts | 279° |
| 2026-05-07 22:05 | -13.87738 | -39.33394 | 4529 ft | 172 kts | 280° |
| 2026-05-07 22:05 | -13.87516 | -39.34616 | 4536 ft | 176 kts | 280° |
| 2026-05-07 22:06 | -13.87293 | -39.35860 | 4536 ft | 177 kts | 279° |
| 2026-05-07 22:06 | -13.87073 | -39.37115 | 4526 ft | 178 kts | 279° |
| 2026-05-07 22:06 | -13.86852 | -39.38371 | 4536 ft | 179 kts | 279° |
| 2026-05-07 22:06 | -13.86624 | -39.39635 | 4537 ft | 180 kts | 280° |
| 2026-05-07 22:07 | -13.86394 | -39.40906 | 4536 ft | 180 kts | 279° |
| 2026-05-07 22:07 | -13.86163 | -39.42173 | 4539 ft | 180 kts | 280° |
| 2026-05-07 22:07 | -13.85937 | -39.43445 | 4537 ft | 181 kts | 280° |
| 2026-05-07 22:07 | -13.85711 | -39.44717 | 4532 ft | 179 kts | 279° |
| 2026-05-07 22:08 | -13.85491 | -39.45947 | 4533 ft | 174 kts | 279° |
| 2026-05-07 22:08 | -13.85269 | -39.47176 | 4534 ft | 176 kts | 280° |
| 2026-05-07 22:08 | -13.85046 | -39.48418 | 4531 ft | 177 kts | 280° |
| 2026-05-07 22:08 | -13.84822 | -39.49674 | 4536 ft | 179 kts | 280° |
| 2026-05-07 22:09 | -13.84603 | -39.50928 | 4537 ft | 177 kts | 280° |
| 2026-05-07 22:09 | -13.84390 | -39.52183 | 4539 ft | 179 kts | 279° |
| 2026-05-07 22:09 | -13.84168 | -39.53447 | 4541 ft | 180 kts | 280° |
| 2026-05-07 22:09 | -13.83942 | -39.54712 | 4534 ft | 179 kts | 279° |
| 2026-05-07 22:10 | -13.83719 | -39.55952 | 4532 ft | 174 kts | 280° |
| 2026-05-07 22:10 | -13.83500 | -39.57189 | 4537 ft | 177 kts | 279° |
| 2026-05-07 22:10 | -13.83279 | -39.58432 | 4540 ft | 177 kts | 279° |
| 2026-05-07 22:10 | -13.83055 | -39.59684 | 4538 ft | 179 kts | 279° |
| 2026-05-07 22:11 | -13.82825 | -39.60943 | 4542 ft | 180 kts | 280° |
| 2026-05-07 22:11 | -13.82606 | -39.62215 | 4543 ft | 181 kts | 277° |
| 2026-05-07 22:11 | -13.82416 | -39.63481 | 4534 ft | 173 kts | 276° |
| 2026-05-07 22:11 | -13.82232 | -39.64703 | 4545 ft | 175 kts | 277° |
| 2026-05-07 22:12 | -13.82039 | -39.65951 | 4543 ft | 177 kts | 277° |
| 2026-05-07 22:12 | -13.81845 | -39.67200 | 4550 ft | 178 kts | 277° |
| 2026-05-07 22:12 | -13.81650 | -39.68470 | 4556 ft | 182 kts | 277° |
| 2026-05-07 22:12 | -13.81453 | -39.69768 | 4553 ft | 186 kts | 277° |
| 2026-05-07 22:13 | -13.81256 | -39.71089 | 4546 ft | 187 kts | 277° |
| 2026-05-07 22:13 | -13.81073 | -39.72382 | 4551 ft | 185 kts | 276° |
| 2026-05-07 22:13 | -13.80880 | -39.73695 | 4547 ft | 185 kts | 277° |
| 2026-05-07 22:13 | -13.80677 | -39.74996 | 4546 ft | 184 kts | 277° |
| 2026-05-07 22:14 | -13.80475 | -39.76290 | 4544 ft | 182 kts | 277° |
| 2026-05-07 22:14 | -13.80277 | -39.77574 | 4538 ft | 181 kts | 277° |
| 2026-05-07 22:14 | -13.80088 | -39.78858 | 4541 ft | 182 kts | 277° |
| 2026-05-07 22:14 | -13.79898 | -39.80145 | 4539 ft | 182 kts | 277° |
| 2026-05-07 22:15 | -13.79712 | -39.81429 | 4547 ft | 183 kts | 276° |
| 2026-05-07 22:15 | -13.79510 | -39.82734 | 4549 ft | 186 kts | 277° |
| 2026-05-07 22:15 | -13.79306 | -39.84048 | 4564 ft | 187 kts | 277° |
| 2026-05-07 22:15 | -13.79101 | -39.85385 | 4555 ft | 190 kts | 276° |
| 2026-05-07 22:16 | -13.78894 | -39.86723 | 4550 ft | 189 kts | 277° |
| 2026-05-07 22:16 | -13.78689 | -39.88055 | 4551 ft | 188 kts | 276° |
| 2026-05-07 22:16 | -13.78486 | -39.89388 | 4546 ft | 188 kts | 276° |
| 2026-05-07 22:16 | -13.78279 | -39.90697 | 4544 ft | 183 kts | 277° |
| 2026-05-07 22:17 | -13.78062 | -39.91979 | 4550 ft | 182 kts | 277° |
| 2026-05-07 22:17 | -13.77850 | -39.93268 | 4555 ft | 183 kts | 276° |
| 2026-05-07 22:17 | -13.77634 | -39.94561 | 4554 ft | 184 kts | 277° |
| 2026-05-07 22:17 | -13.77430 | -39.95871 | 4554 ft | 187 kts | 277° |
| 2026-05-07 22:18 | -13.77228 | -39.97188 | 4558 ft | 187 kts | 277° |
| 2026-05-07 22:18 | -13.76820 | -39.99820 | 4556 ft | 185 kts | 277° |
| 2026-05-07 22:18 | -13.76611 | -40.01130 | 4559 ft | 186 kts | 277° |
| 2026-05-07 22:19 | -13.76396 | -40.02442 | 4548 ft | 184 kts | 277° |
| 2026-05-07 22:19 | -13.76186 | -40.03737 | 4547 ft | 183 kts | 277° |
| 2026-05-07 22:19 | -13.75989 | -40.05021 | 4546 ft | 181 kts | 277° |
| 2026-05-07 22:19 | -13.75794 | -40.06312 | 4550 ft | 184 kts | 276° |
| 2026-05-07 22:20 | -13.75586 | -40.07619 | 4548 ft | 185 kts | 277° |
| 2026-05-07 22:20 | -13.75384 | -40.08928 | 4549 ft | 185 kts | 277° |
| 2026-05-07 22:20 | -13.75187 | -40.10237 | 4551 ft | 186 kts | 277° |
| 2026-05-07 22:20 | -13.74990 | -40.11556 | 4555 ft | 188 kts | 276° |
| 2026-05-07 22:21 | -13.74857 | -40.12433 | 4554 ft | 187 kts | 276° |
| 2026-05-07 22:21 | -13.74639 | -40.13748 | 4560 ft | 186 kts | 277° |
| 2026-05-07 22:21 | -13.74396 | -40.15059 | 4555 ft | 187 kts | 283° |
| 2026-05-07 22:21 | -13.73803 | -40.16741 | 4555 ft | 186 kts | 292° |
| 2026-05-07 22:22 | -13.73479 | -40.17556 | 4552 ft | 185 kts | 292° |
| 2026-05-07 22:22 | -13.72994 | -40.18779 | 4544 ft | 184 kts | 292° |
| 2026-05-07 22:22 | -13.72508 | -40.20004 | 4546 ft | 185 kts | 291° |
| 2026-05-07 22:22 | -13.72020 | -40.21232 | 4542 ft | 185 kts | 291° |
| 2026-05-07 22:23 | -13.71524 | -40.22453 | 4544 ft | 185 kts | 291° |
| 2026-05-07 22:23 | -13.70875 | -40.24046 | 4544 ft | 181 kts | 292° |
| 2026-05-07 22:23 | -13.70549 | -40.24850 | 4548 ft | 181 kts | 292° |
| 2026-05-07 22:23 | -13.70067 | -40.26057 | 4558 ft | 184 kts | 292° |
| 2026-05-07 22:24 | -13.69587 | -40.27288 | 4558 ft | 186 kts | 292° |
| 2026-05-07 22:24 | -13.69122 | -40.28533 | 4565 ft | 188 kts | 291° |
| 2026-05-07 22:24 | -13.68644 | -40.29794 | 4554 ft | 189 kts | 291° |
| 2026-05-07 22:24 | -13.68159 | -40.31052 | 4541 ft | 183 kts | 292° |
| 2026-05-07 22:25 | -13.67697 | -40.32251 | 4548 ft | 180 kts | 294° |
| 2026-05-07 22:25 | -13.67127 | -40.33407 | 4538 ft | 183 kts | 297° |
| 2026-05-07 22:25 | -13.66597 | -40.34593 | 4549 ft | 183 kts | 295° |
| 2026-05-07 22:25 | -13.66070 | -40.35800 | 4557 ft | 186 kts | 295° |
| 2026-05-07 22:26 | -13.65535 | -40.37015 | 4552 ft | 187 kts | 295° |
| 2026-05-07 22:26 | -13.65001 | -40.38240 | 4558 ft | 188 kts | 295° |
| 2026-05-07 22:26 | -13.64477 | -40.39471 | 4556 ft | 188 kts | 295° |
| 2026-05-07 22:26 | -13.63960 | -40.40707 | 4540 ft | 187 kts | 295° |
| 2026-05-07 22:27 | -13.63462 | -40.41938 | 4544 ft | 188 kts | 295° |
| 2026-05-07 22:27 | -13.62919 | -40.43159 | 4533 ft | 187 kts | 301° |
| 2026-05-07 22:27 | -13.62207 | -40.44265 | 4542 ft | 187 kts | 307° |
| 2026-05-07 22:27 | -13.61440 | -40.45358 | 4549 ft | 189 kts | 309° |
| 2026-05-07 22:28 | -13.60666 | -40.46443 | 4544 ft | 187 kts | 309° |
| 2026-05-07 22:28 | -13.59896 | -40.47525 | 4540 ft | 187 kts | 309° |
| 2026-05-07 22:28 | -13.59128 | -40.48598 | 4544 ft | 186 kts | 308° |
| 2026-05-07 22:28 | -13.58356 | -40.49651 | 4541 ft | 183 kts | 309° |
| 2026-05-07 22:29 | -13.57585 | -40.50687 | 4550 ft | 183 kts | 309° |
| 2026-05-07 22:29 | -13.56810 | -40.51732 | 4550 ft | 184 kts | 309° |
| 2026-05-07 22:29 | -13.56043 | -40.52779 | 4554 ft | 184 kts | 309° |
| 2026-05-07 22:29 | -13.55278 | -40.53838 | 4545 ft | 184 kts | 309° |
| 2026-05-07 22:30 | -13.54523 | -40.54889 | 4551 ft | 183 kts | 309° |
| 2026-05-07 22:30 | -13.53765 | -40.55941 | 4553 ft | 183 kts | 309° |
| 2026-05-07 22:30 | -13.53001 | -40.56992 | 4548 ft | 183 kts | 309° |
| 2026-05-07 22:30 | -13.52241 | -40.58035 | 4539 ft | 182 kts | 308° |
| 2026-05-07 22:31 | -13.51483 | -40.59067 | 4544 ft | 180 kts | 309° |
| 2026-05-07 22:31 | -13.50721 | -40.60092 | 4537 ft | 182 kts | 309° |
| 2026-05-07 22:31 | -13.49955 | -40.61124 | 4535 ft | 181 kts | 309° |
| 2026-05-07 22:31 | -13.49191 | -40.62148 | 4536 ft | 180 kts | 309° |
| 2026-05-07 22:32 | -13.48438 | -40.63173 | 4535 ft | 180 kts | 309° |
| 2026-05-07 22:32 | -13.47687 | -40.64207 | 4533 ft | 181 kts | 309° |
| 2026-05-07 22:32 | -13.46936 | -40.65245 | 4532 ft | 180 kts | 309° |
| 2026-05-07 22:32 | -13.46198 | -40.66282 | 4534 ft | 179 kts | 309° |
| 2026-05-07 22:33 | -13.45458 | -40.67320 | 4537 ft | 180 kts | 309° |
| 2026-05-07 22:33 | -13.44710 | -40.68354 | 4539 ft | 181 kts | 309° |
| 2026-05-07 22:33 | -13.43959 | -40.69385 | 4538 ft | 180 kts | 309° |
| 2026-05-07 22:33 | -13.43202 | -40.70413 | 4533 ft | 181 kts | 308° |
| 2026-05-07 22:34 | -13.42428 | -40.71440 | 4492 ft | 184 kts | 309° |
| 2026-05-07 22:34 | -13.41640 | -40.72483 | 4370 ft | 182 kts | 309° |
| 2026-05-07 22:34 | -13.40879 | -40.73494 | 4240 ft | 177 kts | 309° |
| 2026-05-07 22:34 | -13.40135 | -40.74484 | 4104 ft | 174 kts | 309° |
| 2026-05-07 22:35 | -13.39400 | -40.75465 | 3981 ft | 173 kts | 309° |
| 2026-05-07 22:35 | -13.38670 | -40.76444 | 3856 ft | 172 kts | 309° |
| 2026-05-07 22:35 | -13.37945 | -40.77422 | 3706 ft | 173 kts | 309° |
| 2026-05-07 22:35 | -13.37216 | -40.78407 | 3540 ft | 174 kts | 309° |
| 2026-05-07 22:36 | -13.36484 | -40.79400 | 3376 ft | 175 kts | 309° |
| 2026-05-07 22:36 | -13.35749 | -40.80400 | 3211 ft | 176 kts | 309° |
| 2026-05-07 22:36 | -13.35014 | -40.81402 | 3043 ft | 176 kts | 309° |
| 2026-05-07 22:36 | -13.34280 | -40.82401 | 2877 ft | 175 kts | 308° |
| 2026-05-07 22:37 | -13.33555 | -40.83373 | 2706 ft | 166 kts | 309° |
| 2026-05-07 22:37 | -13.32913 | -40.84340 | 2604 ft | 158 kts | 302° |
| 2026-05-07 22:37 | -13.32357 | -40.85257 | 2586 ft | 140 kts | 302° |
| 2026-05-07 22:37 | -13.31886 | -40.86009 | 2498 ft | 114 kts | 311° |
| 2026-05-07 22:38 | -13.31237 | -40.86446 | 2185 ft | 111 kts | 345° |
| 2026-05-07 22:38 | -13.30556 | -40.86724 | 2047 ft | 102 kts | 338° |
| 2026-05-07 22:38 | -13.29912 | -40.87028 | 2135 ft | 99 kts | 337° |
| 2026-05-07 22:38 | -13.29313 | -40.87330 | 2248 ft | 93 kts | 334° |
| 2026-05-07 22:39 | -13.28738 | -40.87631 | 2367 ft | 93 kts | 315° |
| 2026-05-07 22:39 | -13.28702 | -40.88270 | 2397 ft | 99 kts | 230° |
| 2026-05-07 22:39 | -13.29322 | -40.88331 | 2192 ft | 102 kts | 145° |
| 2026-05-07 22:39 | -13.29882 | -40.88068 | 2033 ft | 84 kts | 163° |
| 2026-05-07 22:40 | -13.30463 | -40.87950 | 1786 ft | 84 kts | 170° |
| 2026-05-07 22:40 | -13.30990 | -40.87856 | 1682 ft | 67 kts | 171° |
| 2026-05-07 22:40 | -13.31373 | -40.87775 | 1704 ft | 46 kts | 169° |
| 2026-05-07 22:40 | -13.31534 | -40.87747 | 1709 ft | 11 kts | 169° |
| 2026-05-07 22:41 | -13.31560 | -40.87711 | 1711 ft | 0 kts | 73° |
| 2026-05-07 22:41 | -13.31535 | -40.87700 | 1710 ft | 0 kts | 1° |